Startpagina
METAR-TAF:

METAR-TAF

Vliegvelden :

Fort-de-France, Martinique

breedte: 14-36N, lengte: 061-00W, hoogte: 5 m

Actueel weer

Dit bericht is 31 minuten geleden gemaakt, om 20:30 UTC
Wind 10 kt uit het oosten, variërend tussen het oostnoordoosten en het oostzuidoosten
Temperatuur 28°C
Vochtigheid 74%
Druk 1013 hPa
Zicht 10 km of meer

METAR: TFFF 162030Z AUTO 09010KT 060V120 9999 FEW023/// 28/23 Q1013 TEMPO 4000 SHRA SCT018TCU

Tijdstip: 17:01 (21:01 UTC)

Verwachting

Dit bericht is 4 uur en het 1 minuten geleden gemaakt, om 17:00 UTC
Verwachting geldig van 16 om 18 UTC tot 17 om 18 UTC
Wind 12 kt uit het oosten
Zicht 10 km of meer
Verspreide wolken op 2200 ft
Verspreide wolken op 3000 ft
Tijdelijke
van 16 om 18 UTC tot 17 om 18 UTC
Zicht: 4000 m
Verspreide wolken op 1800 ft, Stapelwolken.
regenbuien

TAF: TFFF 161700Z 1618/1718 10012KT 9999 SCT022 SCT030 TEMPO 1618/1718 4000 SHRA SCT018TCU

Waarnemingen en weersverwachtingen van meer dan 4000 vliegvelden (METAR en TAF).

De beschikbare stations zijn de gele en rode punten op de kaart.

Ga met uw muis naar het station om de naam te zien.

Klik dan om waarnemingen en weersverwachtingen te zien.

kaart wijzigen: klik op de groene knoppen met een zwart kruis om in te zoomen, op de groene knop met een streepje om uit te zoomen of op de groene pijlen voor aangrenzende kaarten.


METAR-TAF: